createdAt,value
2019-01-19T00:00:32.370Z,31.40
2019-01-19T00:01:32.356Z,31.00
2019-01-19T00:02:32.352Z,31.40
2019-01-19T00:03:32.312Z,31.40
2019-01-19T00:04:32.320Z,31.80
2019-01-19T00:05:32.315Z,31.30
2019-01-19T00:06:32.292Z,31.30
2019-01-19T00:07:32.318Z,31.30
2019-01-19T00:08:32.275Z,31.60
2019-01-19T00:09:32.260Z,31.30
2019-01-19T00:10:32.238Z,31.30
2019-01-19T00:11:32.322Z,31.20
2019-01-19T00:12:32.237Z,31.90
2019-01-19T00:13:32.287Z,31.00
2019-01-19T00:14:32.232Z,31.60
2019-01-19T00:15:32.197Z,31.00
2019-01-19T00:16:32.184Z,31.50
2019-01-19T00:17:32.184Z,31.30
2019-01-19T00:18:32.181Z,31.40
2019-01-19T00:19:32.172Z,31.60
2019-01-19T00:20:32.144Z,31.90
2019-01-19T00:21:32.184Z,32.00
2019-01-19T00:22:32.119Z,31.80
2019-01-19T00:23:32.126Z,31.90
2019-01-19T00:24:32.131Z,32.50
2019-01-19T00:25:32.117Z,31.70
2019-01-19T00:26:32.075Z,31.70
2019-01-19T00:27:32.065Z,31.90
2019-01-19T00:28:32.050Z,31.80
2019-01-19T00:29:32.047Z,32.10
2019-01-19T00:30:32.061Z,32.30
2019-01-19T00:31:32.076Z,31.50
2019-01-19T00:32:32.009Z,31.90
2019-01-19T00:33:32.000Z,31.90
2019-01-19T00:34:34.187Z,31.90
2019-01-19T00:35:31.995Z,31.90
2019-01-19T00:36:32.066Z,31.90
2019-01-19T00:37:31.976Z,32.20
2019-01-19T00:38:31.961Z,32.00
2019-01-19T00:39:32.011Z,31.92
2019-01-19T00:40:31.967Z,32.40
2019-01-19T00:41:31.938Z,31.82
2019-01-19T00:42:31.922Z,32.12
2019-01-19T00:43:31.909Z,32.02
2019-01-19T00:44:31.886Z,32.02
2019-01-19T00:45:31.881Z,31.92
2019-01-19T00:46:31.878Z,32.12
2019-01-19T00:47:31.858Z,32.12
2019-01-19T00:48:31.852Z,32.12
2019-01-19T00:49:31.858Z,32.21
2019-01-19T00:50:31.818Z,31.82
2019-01-19T00:51:31.845Z,32.42
2019-01-19T00:52:31.801Z,32.32
2019-01-19T00:53:31.788Z,32.32
2019-01-19T00:54:31.793Z,32.12
2019-01-19T00:55:31.786Z,31.82
2019-01-19T00:56:31.756Z,31.82
2019-01-19T00:57:31.755Z,32.42
2019-01-19T00:58:31.758Z,32.21
2019-01-19T00:59:31.754Z,32.21
2019-01-19T01:00:31.770Z,32.21
2019-01-19T01:01:31.710Z,32.32
2019-01-19T01:02:31.698Z,32.32
2019-01-19T01:03:31.701Z,32.42
2019-01-19T01:04:31.701Z,32.21
2019-01-19T01:05:31.684Z,32.02
2019-01-19T01:06:31.667Z,32.32
2019-01-19T01:07:31.679Z,32.42
2019-01-19T01:08:31.659Z,32.42
2019-01-19T01:09:31.631Z,32.32
2019-01-19T01:10:31.622Z,31.92
2019-01-19T01:11:31.664Z,31.80
2019-01-19T01:12:31.609Z,31.60
2019-01-19T01:13:31.621Z,31.80
2019-01-19T01:14:31.570Z,31.82
2019-01-19T01:15:31.635Z,31.60
2019-01-19T01:16:31.579Z,31.92
2019-01-19T01:17:31.599Z,31.20
2019-01-19T01:18:31.534Z,31.50
2019-01-19T01:19:31.504Z,31.92
2019-01-19T01:20:31.515Z,32.02
2019-01-19T01:21:31.496Z,32.52
2019-01-19T01:22:31.482Z,32.32
2019-01-19T01:23:31.501Z,32.12
2019-01-19T01:24:31.477Z,32.12
2019-01-19T01:25:31.444Z,32.02
2019-01-19T01:26:31.509Z,32.42
2019-01-19T01:27:31.432Z,31.82
2019-01-19T01:28:31.447Z,31.90
2019-01-19T01:29:31.427Z,31.60
2019-01-19T01:30:31.392Z,31.60
2019-01-19T01:31:31.397Z,31.01
2019-01-19T01:32:31.395Z,31.30
2019-01-19T01:33:31.364Z,31.30
2019-01-19T01:34:31.388Z,31.30
2019-01-19T01:35:32.742Z,31.82
2019-01-19T01:36:31.347Z,32.42
2019-01-19T01:37:31.330Z,31.92
2019-01-19T01:38:31.322Z,32.21
2019-01-19T01:39:31.302Z,32.42
2019-01-19T01:40:31.305Z,32.42
2019-01-19T01:41:31.296Z,31.92
2019-01-19T01:42:31.264Z,32.21
2019-01-19T01:43:31.269Z,32.12
2019-01-19T01:44:31.254Z,32.32
2019-01-19T01:45:31.245Z,32.12
2019-01-19T01:46:31.238Z,31.51
2019-01-19T01:47:31.246Z,31.82
2019-01-19T01:48:31.211Z,31.20
2019-01-19T01:49:31.202Z,31.12
2019-01-19T01:50:31.184Z,31.82
2019-01-19T01:51:31.182Z,31.21
2019-01-19T01:52:31.163Z,31.12
2019-01-19T01:53:31.276Z,31.10
2019-01-19T01:54:31.147Z,31.82
2019-01-19T01:55:31.134Z,32.02
2019-01-19T01:56:31.129Z,32.42
2019-01-19T01:57:31.117Z,32.42
2019-01-19T01:58:31.116Z,31.82
2019-01-19T01:59:31.099Z,31.92
2019-01-19T02:00:31.088Z,31.82
2019-01-19T02:01:31.076Z,31.62
2019-01-19T02:02:31.052Z,32.12
2019-01-19T02:03:31.053Z,31.82
2019-01-19T02:04:31.041Z,31.92
2019-01-19T02:05:31.031Z,32.02
2019-01-19T02:06:31.037Z,31.62
2019-01-19T02:07:31.034Z,32.32
2019-01-19T02:08:30.994Z,32.32
2019-01-19T02:09:30.994Z,32.12
2019-01-19T02:10:30.992Z,32.02
2019-01-19T02:11:30.994Z,31.82
2019-01-19T02:12:30.966Z,32.21
2019-01-19T02:13:30.947Z,32.32
2019-01-19T02:14:30.936Z,32.12
2019-01-19T02:15:30.935Z,32.32
2019-01-19T02:16:30.903Z,32.21
2019-01-19T02:17:30.925Z,32.12
2019-01-19T02:18:30.915Z,31.83
2019-01-19T02:19:30.877Z,32.02
2019-01-19T02:20:30.879Z,32.21
2019-01-19T02:21:30.876Z,32.32
2019-01-19T02:22:30.885Z,32.12
2019-01-19T02:23:30.831Z,32.14
2019-01-19T02:24:30.854Z,32.53
2019-01-19T02:25:30.810Z,32.32
2019-01-19T02:26:30.813Z,32.32
2019-01-19T02:27:30.800Z,32.14
2019-01-19T02:28:30.772Z,32.14
2019-01-19T02:29:30.775Z,32.14
2019-01-19T02:30:30.779Z,32.12
2019-01-19T02:31:30.749Z,32.32
2019-01-19T02:32:30.751Z,32.33
2019-01-19T02:33:30.735Z,32.12
2019-01-19T02:34:30.729Z,32.12
2019-01-19T02:35:30.738Z,32.53
2019-01-19T02:36:30.691Z,32.53
2019-01-19T02:37:30.684Z,32.52
2019-01-19T02:38:30.682Z,32.21
2019-01-19T02:39:30.678Z,32.42
2019-01-19T02:40:30.670Z,32.21
2019-01-19T02:41:30.642Z,32.42
2019-01-19T02:42:30.628Z,32.21
2019-01-19T02:43:30.622Z,32.21
2019-01-19T02:44:30.627Z,32.43
2019-01-19T02:45:30.615Z,32.32
2019-01-19T02:46:30.597Z,32.12
2019-01-19T02:47:30.591Z,31.92
2019-01-19T02:48:30.568Z,31.92
2019-01-19T02:49:30.563Z,31.73
2019-01-19T02:50:30.560Z,32.21
2019-01-19T02:51:30.570Z,32.52
2019-01-19T02:52:30.543Z,32.32
2019-01-19T02:53:30.510Z,32.02
2019-01-19T02:54:30.505Z,32.33
2019-01-19T02:55:30.588Z,32.02
2019-01-19T02:56:30.539Z,32.21
2019-01-19T02:57:30.489Z,32.12
2019-01-19T02:58:30.544Z,32.33
2019-01-19T02:59:30.451Z,32.33
2019-01-19T03:00:30.455Z,31.82
2019-01-19T03:01:30.445Z,31.93
2019-01-19T03:02:30.432Z,31.31
2019-01-19T03:03:30.453Z,31.82
2019-01-19T03:04:30.416Z,31.12
2019-01-19T03:05:30.391Z,31.21
2019-01-19T03:06:30.374Z,31.31
2019-01-19T03:07:30.370Z,31.12
2019-01-19T03:08:30.365Z,31.41
2019-01-19T03:09:30.363Z,31.51
2019-01-19T03:10:30.331Z,31.51
2019-01-19T03:11:30.338Z,31.62
2019-01-19T03:12:30.321Z,31.21
2019-01-19T03:13:30.310Z,31.31
2019-01-19T03:14:30.323Z,31.21
2019-01-19T03:15:31.512Z,31.31
2019-01-19T03:16:30.269Z,31.21
2019-01-19T03:17:30.257Z,31.31
2019-01-19T03:18:30.258Z,31.31
2019-01-19T03:19:30.251Z,32.12
2019-01-19T03:20:30.239Z,31.62
2019-01-19T03:21:30.238Z,31.41
2019-01-19T03:22:30.203Z,31.51
2019-01-19T03:23:30.198Z,31.01
2019-01-19T03:24:30.219Z,31.21
2019-01-19T03:25:30.214Z,31.70
2019-01-19T03:26:30.182Z,31.30
2019-01-19T03:27:30.161Z,30.50
2019-01-19T03:28:30.147Z,31.40
2019-01-19T03:29:30.143Z,30.69
2019-01-19T03:30:30.143Z,31.62
2019-01-19T03:31:30.131Z,31.60
2019-01-19T03:32:30.127Z,31.41
2019-01-19T03:33:30.085Z,31.31
2019-01-19T03:34:30.074Z,31.21
2019-01-19T03:35:30.080Z,31.12
2019-01-19T03:36:30.081Z,31.12
2019-01-19T03:37:30.057Z,31.01
2019-01-19T03:38:30.055Z,31.12
2019-01-19T03:39:30.019Z,31.31
2019-01-19T03:40:30.024Z,31.21
2019-01-19T03:41:30.011Z,31.63
2019-01-19T03:42:30.000Z,31.21
2019-01-19T03:43:29.994Z,31.63
2019-01-19T03:44:29.974Z,31.62
2019-01-19T03:45:29.959Z,31.23
2019-01-19T03:46:30.063Z,31.21
2019-01-19T03:47:29.951Z,31.33
2019-01-19T03:48:29.957Z,31.31
2019-01-19T03:49:29.953Z,31.82
2019-01-19T03:50:29.950Z,31.21
2019-01-19T03:51:29.899Z,31.21
2019-01-19T03:52:29.896Z,31.21
2019-01-19T03:53:29.878Z,31.13
2019-01-19T03:54:29.896Z,31.41
2019-01-19T03:55:29.874Z,31.63
2019-01-19T03:56:29.856Z,32.43
2019-01-19T03:57:29.831Z,32.33
2019-01-19T03:58:29.831Z,32.43
2019-01-19T03:59:29.814Z,32.23
2019-01-19T04:00:29.819Z,32.53
2019-01-19T04:01:29.833Z,31.83
2019-01-19T04:02:29.785Z,32.33
2019-01-19T04:03:29.788Z,32.43
2019-01-19T04:04:29.765Z,31.83
2019-01-19T04:05:29.753Z,32.33
2019-01-19T04:06:29.769Z,32.14
2019-01-19T04:07:29.738Z,31.93
2019-01-19T04:08:29.721Z,32.14
2019-01-19T04:09:29.701Z,32.23
2019-01-19T04:10:29.696Z,32.33
2019-01-19T04:11:29.678Z,32.23
2019-01-19T04:12:29.673Z,32.33
2019-01-19T04:13:29.647Z,32.33
2019-01-19T04:14:29.646Z,32.53
2019-01-19T04:15:29.640Z,32.14
2019-01-19T04:16:29.671Z,32.02
2019-01-19T04:17:29.627Z,31.63
2019-01-19T04:18:29.650Z,31.93
2019-01-19T04:19:29.596Z,31.51
2019-01-19T04:20:29.588Z,31.21
2019-01-19T04:21:29.572Z,31.83
2019-01-19T04:22:29.559Z,32.43
2019-01-19T04:23:29.551Z,32.14
2019-01-19T04:24:29.553Z,32.23
2019-01-19T04:25:29.527Z,32.23
2019-01-19T04:26:29.581Z,31.93
2019-01-19T04:27:29.502Z,32.03
2019-01-19T04:28:29.513Z,32.14
2019-01-19T04:29:29.496Z,31.93
2019-01-19T04:30:29.463Z,32.03
2019-01-19T04:31:29.463Z,32.23
2019-01-19T04:32:29.450Z,32.14
2019-01-19T04:33:29.442Z,31.93
2019-01-19T04:34:29.446Z,31.53
2019-01-19T04:35:29.432Z,31.73
2019-01-19T04:36:29.412Z,31.13
2019-01-19T04:37:29.397Z,31.92
2019-01-19T04:38:29.397Z,31.53
2019-01-19T04:39:29.379Z,31.41
2019-01-19T04:40:29.367Z,31.41
2019-01-19T04:41:29.362Z,31.31
2019-01-19T04:42:29.342Z,31.62
2019-01-19T04:43:29.336Z,31.62
2019-01-19T04:44:29.331Z,31.01
2019-01-19T04:45:29.323Z,31.03
2019-01-19T04:46:29.311Z,31.62
2019-01-19T04:47:29.314Z,31.12
2019-01-19T04:48:29.288Z,31.21
2019-01-19T04:49:29.278Z,31.82
2019-01-19T04:50:29.271Z,31.41
2019-01-19T04:51:29.282Z,31.41
2019-01-19T04:52:29.259Z,31.01
2019-01-19T04:53:29.249Z,31.62
2019-01-19T04:54:29.232Z,31.41
2019-01-19T04:55:29.210Z,31.41
2019-01-19T04:56:29.218Z,31.01
2019-01-19T04:57:29.206Z,30.81
2019-01-19T04:58:29.199Z,31.31
2019-01-19T04:59:29.216Z,31.31
2019-01-19T05:00:29.159Z,31.62
2019-01-19T05:01:29.154Z,31.21
2019-01-19T05:02:29.147Z,31.41
2019-01-19T05:03:29.148Z,31.21
2019-01-19T05:04:29.129Z,31.01
2019-01-19T05:05:29.105Z,30.91
2019-01-19T05:06:30.502Z,31.12
2019-01-19T05:07:29.097Z,31.41
2019-01-19T05:08:29.089Z,31.30
2019-01-19T05:09:29.069Z,30.90
2019-01-19T05:10:29.093Z,31.10
2019-01-19T05:11:29.053Z,31.29
2019-01-19T05:12:29.033Z,30.78
2019-01-19T05:13:29.024Z,30.07
2019-01-19T05:14:29.027Z,30.77
2019-01-19T05:15:29.032Z,30.77
2019-01-19T05:16:29.020Z,29.66
2019-01-19T05:17:28.972Z,30.07
2019-01-19T05:18:28.958Z,30.15
2019-01-19T05:19:28.955Z,29.95
2019-01-19T05:20:28.938Z,29.25
2019-01-19T05:21:28.938Z,29.64
2019-01-19T05:22:28.927Z,29.94
2019-01-19T05:23:28.911Z,29.44
2019-01-19T05:24:28.905Z,29.74
2019-01-19T05:25:28.889Z,30.04
2019-01-19T05:26:28.880Z,30.34
2019-01-19T05:27:28.886Z,30.32
2019-01-19T05:28:28.852Z,30.22
2019-01-19T05:29:28.841Z,29.93
2019-01-19T05:30:28.846Z,30.02
2019-01-19T05:31:28.830Z,29.82
2019-01-19T05:32:28.814Z,30.22
2019-01-19T05:33:28.807Z,29.52
2019-01-19T05:34:28.793Z,28.91
2019-01-19T05:35:28.778Z,29.31
2019-01-19T05:36:28.774Z,29.31
2019-01-19T05:37:28.758Z,29.31
2019-01-19T05:38:28.750Z,29.11
2019-01-19T05:39:28.741Z,29.41
2019-01-19T05:40:28.728Z,29.51
2019-01-19T05:41:28.715Z,29.31
2019-01-19T05:42:28.742Z,29.31
2019-01-19T05:43:28.698Z,29.51
2019-01-19T05:44:28.700Z,29.51
2019-01-19T05:45:28.674Z,29.11
2019-01-19T05:46:28.664Z,28.89
2019-01-19T05:47:28.655Z,29.39
2019-01-19T05:48:28.645Z,28.39
2019-01-19T05:49:28.654Z,28.69
2019-01-19T05:50:28.638Z,29.19
2019-01-19T05:51:28.622Z,28.69
2019-01-19T05:52:28.606Z,28.39
2019-01-19T05:53:28.628Z,28.39
2019-01-19T05:54:28.602Z,28.89
2019-01-19T05:55:28.616Z,28.69
2019-01-19T05:56:28.582Z,28.59
2019-01-19T05:57:28.569Z,28.58
2019-01-19T05:58:28.562Z,28.69
2019-01-19T05:59:28.536Z,28.50
2019-01-19T06:00:28.532Z,28.39
2019-01-19T06:01:28.530Z,28.78
2019-01-19T06:02:28.503Z,28.59
2019-01-19T06:03:28.495Z,28.58
2019-01-19T06:04:28.478Z,28.50
2019-01-19T06:05:28.474Z,28.58
2019-01-19T06:06:28.466Z,28.58
2019-01-19T06:07:28.468Z,28.59
2019-01-19T06:08:28.447Z,28.38
2019-01-19T06:09:28.434Z,28.58
2019-01-19T06:10:28.418Z,28.28
2019-01-19T06:11:28.421Z,28.78
2019-01-19T06:12:28.432Z,28.48
2019-01-19T06:13:28.414Z,28.78
2019-01-19T06:14:28.381Z,28.48
2019-01-19T06:15:28.384Z,28.78
2019-01-19T06:16:28.366Z,28.78
2019-01-19T06:17:28.360Z,28.48
2019-01-19T06:18:28.357Z,28.78
2019-01-19T06:19:28.356Z,28.78
2019-01-19T06:20:28.321Z,28.78
2019-01-19T06:21:28.314Z,28.78
2019-01-19T06:22:28.311Z,28.98
2019-01-19T06:23:28.291Z,28.78
2019-01-19T06:24:28.295Z,28.78
2019-01-19T06:25:28.272Z,28.78
2019-01-19T06:26:28.255Z,28.78
2019-01-19T06:27:28.239Z,28.78
2019-01-19T06:28:28.257Z,27.88
2019-01-19T06:29:28.232Z,28.78
2019-01-19T06:30:28.219Z,28.67
2019-01-19T06:31:28.200Z,27.88
2019-01-19T06:32:28.202Z,29.17
2019-01-19T06:33:28.174Z,27.97
2019-01-19T06:34:28.168Z,29.06
2019-01-19T06:35:28.163Z,27.87
2019-01-19T06:36:28.142Z,28.97
2019-01-19T06:37:28.158Z,29.06
2019-01-19T06:38:28.143Z,28.78
2019-01-19T06:39:28.117Z,27.88
2019-01-19T06:40:28.155Z,29.18
2019-01-19T06:41:28.109Z,29.18
2019-01-19T06:42:28.088Z,28.18
2019-01-19T06:43:28.124Z,27.98
2019-01-19T06:44:28.071Z,28.78
2019-01-19T06:45:28.113Z,29.18
2019-01-19T06:46:28.043Z,28.17
2019-01-19T06:47:28.051Z,29.06
2019-01-19T06:48:28.029Z,28.17
2019-01-19T06:49:28.013Z,28.07
2019-01-19T06:50:28.021Z,28.27
2019-01-19T06:51:28.001Z,28.47
2019-01-19T06:52:27.996Z,28.37
2019-01-19T06:53:28.023Z,28.47
2019-01-19T06:54:27.993Z,28.47
2019-01-19T06:55:27.958Z,28.47
2019-01-19T06:56:27.947Z,28.87
2019-01-19T06:57:27.928Z,28.47
2019-01-19T06:58:27.931Z,28.17
2019-01-19T06:59:27.923Z,28.37
2019-01-19T07:00:27.940Z,28.37
2019-01-19T07:01:27.891Z,28.47
2019-01-19T07:02:27.877Z,28.37
2019-01-19T07:03:27.867Z,28.37
2019-01-19T07:04:27.868Z,28.57
2019-01-19T07:05:27.863Z,28.57
2019-01-19T07:06:27.831Z,28.47
2019-01-19T07:07:27.836Z,28.47
2019-01-19T07:08:27.842Z,27.87
2019-01-19T07:09:27.806Z,27.97
2019-01-19T07:10:27.797Z,27.87
2019-01-19T07:11:27.809Z,27.47
2019-01-19T07:12:27.782Z,27.45
2019-01-19T07:13:27.765Z,27.75
2019-01-19T07:14:27.749Z,27.45
2019-01-19T07:15:27.746Z,27.66
2019-01-19T07:16:27.758Z,27.77
2019-01-19T07:17:27.730Z,27.56
2019-01-19T07:18:27.778Z,27.45
2019-01-19T07:19:27.726Z,27.45
2019-01-19T07:20:27.685Z,27.86
2019-01-19T07:21:27.677Z,27.97
2019-01-19T07:22:27.693Z,27.67
2019-01-19T07:23:27.647Z,27.87
2019-01-19T07:24:27.649Z,28.05
2019-01-19T07:25:27.653Z,27.86
2019-01-19T07:26:27.623Z,27.86
2019-01-19T07:27:27.645Z,28.17
2019-01-19T07:28:27.623Z,27.77
2019-01-19T07:29:27.592Z,28.07
2019-01-19T07:30:27.647Z,28.17
2019-01-19T07:31:28.269Z,28.07
2019-01-19T07:32:27.565Z,27.86
2019-01-19T07:33:27.575Z,27.75
2019-01-19T07:34:27.571Z,28.25
2019-01-19T07:35:27.563Z,27.66
2019-01-19T07:36:27.530Z,27.86
2019-01-19T07:37:27.609Z,27.66
2019-01-19T07:38:27.502Z,28.05
2019-01-19T07:39:27.534Z,27.95
2019-01-19T07:40:27.504Z,28.25
2019-01-19T07:41:27.470Z,27.74
2019-01-19T07:42:27.469Z,28.24
2019-01-19T07:43:27.452Z,28.24
2019-01-19T07:44:27.439Z,28.04
2019-01-19T07:45:27.438Z,27.36
2019-01-19T07:46:27.633Z,28.04
2019-01-19T07:47:27.409Z,27.75
2019-01-19T07:48:27.443Z,27.74
2019-01-19T07:49:27.475Z,27.34
2019-01-19T07:50:27.393Z,27.34
2019-01-19T07:51:27.411Z,27.94
2019-01-19T07:52:27.874Z,27.74
2019-01-19T07:53:27.342Z,27.64
2019-01-19T07:54:27.349Z,27.74
2019-01-19T07:55:27.343Z,27.94
2019-01-19T07:56:27.320Z,27.84
2019-01-19T07:57:31.174Z,28.04
2019-01-19T07:58:27.286Z,27.94
2019-01-19T07:59:27.286Z,28.04
2019-01-19T08:00:27.267Z,27.84
2019-01-19T08:01:27.255Z,27.64
2019-01-19T08:02:27.245Z,27.64
2019-01-19T08:03:27.229Z,27.64
2019-01-19T08:04:27.220Z,28.04
2019-01-19T08:05:27.216Z,28.04
2019-01-19T08:06:27.201Z,28.04
2019-01-19T08:07:27.186Z,27.84
2019-01-19T08:08:27.180Z,28.04
2019-01-19T08:09:27.161Z,28.04
2019-01-19T08:10:27.167Z,27.55
2019-01-19T08:11:27.152Z,27.55
2019-01-19T08:12:27.149Z,28.44
2019-01-19T08:13:27.133Z,27.73
2019-01-19T08:14:27.131Z,27.63
2019-01-19T08:15:27.128Z,28.12
2019-01-19T08:16:27.098Z,27.73
2019-01-19T08:17:27.147Z,27.34
2019-01-19T08:18:27.083Z,28.23
2019-01-19T08:19:27.069Z,28.03
2019-01-19T08:20:27.075Z,28.42
2019-01-19T08:21:27.042Z,27.93
2019-01-19T08:22:27.060Z,27.13
2019-01-19T08:23:27.044Z,27.33
2019-01-19T08:24:27.022Z,27.03
2019-01-19T08:25:27.014Z,27.13
2019-01-19T08:26:26.996Z,27.43
2019-01-19T08:27:26.982Z,27.73
2019-01-19T08:28:26.977Z,27.43
2019-01-19T08:29:26.974Z,27.53
2019-01-19T08:30:26.973Z,27.43
2019-01-19T08:31:26.945Z,27.43
2019-01-19T08:32:26.927Z,27.53
2019-01-19T08:33:26.919Z,27.73
2019-01-19T08:34:27.012Z,27.43
2019-01-19T08:35:26.895Z,27.13
2019-01-19T08:36:26.897Z,27.33
2019-01-19T08:37:26.906Z,27.33
2019-01-19T08:38:26.904Z,27.53
2019-01-19T08:39:26.859Z,27.33
2019-01-19T08:40:26.870Z,27.13
2019-01-19T08:41:26.848Z,27.13
2019-01-19T08:42:26.833Z,27.13
2019-01-19T08:43:26.824Z,27.22
2019-01-19T08:44:26.805Z,27.12
2019-01-19T08:45:26.824Z,27.03
2019-01-19T08:46:26.820Z,27.02
2019-01-19T08:47:26.794Z,27.02
2019-01-19T08:48:26.775Z,27.02
2019-01-19T08:49:26.795Z,27.32
2019-01-19T08:50:26.736Z,27.02
2019-01-19T08:51:26.735Z,26.82
2019-01-19T08:52:26.727Z,26.92
2019-01-19T08:53:26.720Z,26.92
2019-01-19T08:54:26.717Z,27.12
2019-01-19T08:55:26.698Z,27.22
2019-01-19T08:56:26.692Z,26.92
2019-01-19T08:57:26.670Z,27.02
2019-01-19T08:58:26.698Z,27.12
2019-01-19T08:59:26.646Z,27.32
2019-01-19T09:00:26.658Z,27.02
2019-01-19T09:01:26.700Z,27.12
2019-01-19T09:02:26.672Z,26.92
2019-01-19T09:03:26.615Z,27.22
2019-01-19T09:04:26.608Z,26.72
2019-01-19T09:05:26.637Z,27.22
2019-01-19T09:06:26.622Z,27.12
2019-01-19T09:07:33.452Z,26.92
2019-01-19T09:08:27.559Z,26.81
2019-01-19T09:09:26.562Z,27.22
2019-01-19T09:10:26.544Z,27.12
2019-01-19T09:11:26.525Z,26.72
2019-01-19T09:12:26.540Z,26.61
2019-01-19T09:13:26.529Z,27.00
2019-01-19T09:14:26.505Z,26.31
2019-01-19T09:15:26.485Z,27.20
2019-01-19T09:16:26.484Z,26.92
2019-01-19T09:17:26.595Z,26.61
2019-01-19T09:18:26.487Z,26.70
2019-01-19T09:19:26.731Z,26.70
2019-01-19T09:20:26.449Z,27.00
2019-01-19T09:21:26.421Z,26.51
2019-01-19T09:22:26.412Z,26.31
2019-01-19T09:23:26.462Z,27.12
2019-01-19T09:24:26.445Z,27.00
2019-01-19T09:25:26.376Z,27.11
2019-01-19T09:26:26.374Z,27.00
2019-01-19T09:27:26.387Z,26.81
2019-01-19T09:28:26.382Z,26.81
2019-01-19T09:29:26.570Z,27.00
2019-01-19T09:30:26.373Z,27.00
2019-01-19T09:31:26.309Z,26.81
2019-01-19T09:32:26.305Z,26.70
2019-01-19T09:33:26.297Z,26.70
2019-01-19T09:34:26.293Z,26.70
2019-01-19T09:35:26.287Z,26.51
2019-01-19T09:36:26.263Z,26.72
2019-01-19T09:37:26.252Z,26.70
2019-01-19T09:38:26.258Z,26.40
2019-01-19T09:39:26.240Z,26.62
2019-01-19T09:40:26.237Z,26.81
2019-01-19T09:41:26.262Z,26.90
2019-01-19T09:42:26.192Z,26.81
2019-01-19T09:43:26.181Z,26.81
2019-01-19T09:44:26.174Z,26.61
2019-01-19T09:45:26.227Z,26.61
2019-01-19T09:46:26.167Z,26.90
2019-01-19T09:47:26.153Z,27.00
2019-01-19T09:48:26.200Z,26.81
2019-01-19T09:49:26.186Z,26.81
2019-01-19T09:50:26.110Z,26.81
2019-01-19T09:51:26.118Z,26.81
2019-01-19T09:52:26.158Z,26.81
2019-01-19T09:53:26.130Z,26.81
2019-01-19T09:54:26.063Z,26.81
2019-01-19T09:55:26.085Z,26.70
2019-01-19T09:56:26.049Z,26.81
2019-01-19T09:57:26.080Z,26.70
2019-01-19T09:58:26.068Z,26.81
2019-01-19T09:59:26.029Z,26.90
2019-01-19T10:00:26.010Z,26.51
2019-01-19T10:01:25.999Z,27.00
2019-01-19T10:02:25.992Z,26.61
2019-01-19T10:03:25.985Z,26.61
2019-01-19T10:04:26.012Z,26.81
2019-01-19T10:05:26.021Z,26.81
2019-01-19T10:06:25.939Z,26.81
2019-01-19T10:07:25.938Z,26.81
2019-01-19T10:08:26.019Z,26.90
2019-01-19T10:09:25.922Z,26.61
2019-01-19T10:10:25.978Z,26.81
2019-01-19T10:11:25.938Z,27.11
2019-01-19T10:12:25.879Z,27.00
2019-01-19T10:13:25.875Z,26.61
2019-01-19T10:14:25.872Z,27.00
2019-01-19T10:15:25.879Z,26.82
2019-01-19T10:16:25.891Z,26.51
2019-01-19T10:17:25.881Z,26.51
2019-01-19T10:18:25.882Z,26.70
2019-01-19T10:19:25.807Z,26.32
2019-01-19T10:20:25.810Z,26.82
2019-01-19T10:21:25.820Z,26.61
2019-01-19T10:22:25.823Z,27.00
2019-01-19T10:23:25.854Z,27.00
2019-01-19T10:24:25.841Z,27.00
2019-01-19T10:25:25.749Z,26.61
2019-01-19T10:26:25.781Z,26.52
2019-01-19T10:27:25.749Z,26.61
2019-01-19T10:28:25.783Z,26.92
2019-01-19T10:29:25.701Z,26.81
2019-01-19T10:30:25.687Z,26.61
2019-01-19T10:31:25.680Z,26.62
2019-01-19T10:32:25.689Z,27.00
2019-01-19T10:33:25.721Z,26.40
2019-01-19T10:34:25.644Z,26.70
2019-01-19T10:35:25.635Z,26.40
2019-01-19T10:36:25.635Z,26.62
2019-01-19T10:37:25.646Z,26.61
2019-01-19T10:38:25.639Z,26.62
2019-01-19T10:39:25.631Z,26.70
2019-01-19T10:40:25.587Z,26.62
2019-01-19T10:41:25.576Z,26.90
2019-01-19T10:42:25.597Z,26.40
2019-01-19T10:43:25.563Z,26.51
2019-01-19T10:44:25.567Z,27.11
2019-01-19T10:45:25.547Z,26.70
2019-01-19T10:46:25.595Z,26.70
2019-01-19T10:47:25.518Z,26.81
2019-01-19T10:48:25.508Z,27.00
2019-01-19T10:49:25.498Z,26.81
2019-01-19T10:50:25.507Z,26.70
2019-01-19T10:51:25.515Z,26.81
2019-01-19T10:52:25.499Z,26.81
2019-01-19T10:53:25.524Z,26.81
2019-01-19T10:54:25.443Z,26.81
2019-01-19T10:55:25.439Z,26.81
2019-01-19T10:56:25.441Z,26.81
2019-01-19T10:57:25.443Z,26.81
2019-01-19T10:58:25.409Z,26.70
2019-01-19T10:59:25.402Z,27.00
2019-01-19T11:00:25.371Z,26.70
2019-01-19T11:01:25.370Z,26.70
2019-01-19T11:02:25.383Z,26.81
2019-01-19T11:03:25.406Z,27.11
2019-01-19T11:04:25.327Z,27.00
2019-01-19T11:05:25.316Z,26.70
2019-01-19T11:06:25.330Z,27.00
2019-01-19T11:07:25.308Z,26.81
2019-01-19T11:08:25.302Z,26.70
2019-01-19T11:09:25.321Z,26.51
2019-01-19T11:10:25.318Z,26.51
2019-01-19T11:11:25.258Z,26.61
2019-01-19T11:12:25.254Z,26.61
2019-01-19T11:13:25.270Z,27.11
2019-01-19T11:14:25.263Z,27.11
2019-01-19T11:15:25.258Z,26.81
2019-01-19T11:16:25.207Z,27.00
2019-01-19T11:17:25.198Z,27.00
2019-01-19T11:18:25.183Z,27.20
2019-01-19T11:19:25.204Z,26.90
2019-01-19T11:20:25.716Z,26.61
2019-01-19T11:21:25.153Z,27.11
2019-01-19T11:22:25.142Z,26.90
2019-01-19T11:23:25.166Z,26.61
2019-01-19T11:24:25.155Z,26.61
2019-01-19T11:25:25.124Z,27.11
2019-01-19T11:26:25.116Z,26.90
2019-01-19T11:27:25.087Z,27.00
2019-01-19T11:28:25.079Z,26.90
2019-01-19T11:29:25.078Z,27.00
2019-01-19T11:30:25.086Z,27.20
2019-01-19T11:31:25.078Z,27.20
2019-01-19T11:32:25.093Z,27.20
2019-01-19T11:33:25.021Z,27.02
2019-01-19T11:34:25.044Z,27.20
2019-01-19T11:35:25.025Z,27.00
2019-01-19T11:36:25.008Z,27.00
2019-01-19T11:37:25.028Z,27.00
2019-01-19T11:38:25.049Z,27.20
2019-01-19T11:39:24.969Z,27.00
2019-01-19T11:40:24.957Z,27.02
2019-01-19T11:41:24.948Z,26.90
2019-01-19T11:42:24.933Z,26.21
2019-01-19T11:43:24.929Z,26.82
2019-01-19T11:44:24.923Z,26.92
2019-01-19T11:45:24.901Z,27.12
2019-01-19T11:46:24.889Z,27.81
2019-01-19T11:47:24.897Z,26.42
2019-01-19T11:48:24.897Z,26.82
2019-01-19T11:49:24.887Z,26.52
2019-01-19T11:50:26.061Z,26.82
2019-01-19T11:51:24.838Z,27.23
2019-01-19T11:52:24.831Z,26.84
2019-01-19T11:53:24.822Z,27.14
2019-01-19T11:54:24.818Z,27.34
2019-01-19T11:55:24.797Z,26.94
2019-01-19T11:56:24.790Z,27.04
2019-01-19T11:57:24.769Z,26.94
2019-01-19T11:58:24.762Z,27.14
2019-01-19T11:59:24.767Z,27.33
2019-01-19T12:00:24.770Z,27.03
2019-01-19T12:01:24.768Z,27.13
2019-01-19T12:02:24.714Z,26.43
2019-01-19T12:03:24.709Z,26.43
2019-01-19T12:04:24.698Z,26.63
2019-01-19T12:05:24.696Z,27.03
2019-01-19T12:06:24.701Z,27.13
2019-01-19T12:07:24.670Z,26.93
2019-01-19T12:08:24.681Z,27.13
2019-01-19T12:09:24.687Z,26.63
2019-01-19T12:10:24.633Z,27.03
2019-01-19T12:11:24.634Z,27.03
2019-01-19T12:12:24.631Z,26.73
2019-01-19T12:13:24.641Z,26.23
2019-01-19T12:14:24.602Z,26.43
2019-01-19T12:15:24.591Z,26.73
2019-01-19T12:16:24.575Z,26.73
2019-01-19T12:17:24.579Z,27.13
2019-01-19T12:18:24.564Z,26.63
2019-01-19T12:19:24.586Z,26.63
2019-01-19T12:20:24.535Z,26.73
2019-01-19T12:21:24.523Z,26.93
2019-01-19T12:22:24.522Z,26.93
2019-01-19T12:23:24.518Z,27.33
2019-01-19T12:24:24.529Z,27.23
2019-01-19T12:25:24.477Z,26.93
2019-01-19T12:26:24.473Z,26.83
2019-01-19T12:27:24.462Z,26.83
2019-01-19T12:28:24.455Z,26.93
2019-01-19T12:29:24.442Z,27.13
2019-01-19T12:30:24.433Z,27.23
2019-01-19T12:31:24.433Z,27.23
2019-01-19T12:32:24.410Z,27.33
2019-01-19T12:33:24.403Z,26.93
2019-01-19T12:34:24.418Z,27.23
2019-01-19T12:35:24.386Z,27.23
2019-01-19T12:36:24.373Z,27.53
2019-01-19T12:37:24.385Z,27.03
2019-01-19T12:38:27.038Z,27.33
2019-01-19T12:39:24.350Z,27.03
2019-01-19T12:40:24.351Z,27.23
2019-01-19T12:41:24.310Z,27.13
2019-01-19T12:42:24.304Z,27.03
2019-01-19T12:43:24.296Z,26.93
2019-01-19T12:44:24.278Z,27.33
2019-01-19T12:45:24.276Z,26.73
2019-01-19T12:46:24.271Z,27.33
2019-01-19T12:47:24.271Z,27.13
2019-01-19T12:48:24.251Z,26.43
2019-01-19T12:49:24.245Z,26.63
2019-01-19T12:50:24.222Z,27.13
2019-01-19T12:51:24.224Z,27.13
2019-01-19T12:52:24.213Z,27.03